Blue Mountain, AL (36204)

4:02 AM CST on December 28, 2014 (GMT -0600)
Choccolocco Community | Change Station
CLOSE
Current Station
Personal Weather Station
Location: Anniston, AL
Elevation: 865 ft
Nearby Weather Stations
Active Advisory: Flash Flood Watch

Elev 865 ft 33.69 °N, 85.72 °W | Updated 11 seconds ago

Rain
Rain
56.2 °F
Feels Like 56.2 °F
N
3.0
Wind Variable Wind from SE
Gusts 3.0 mph

Today
High -- | Low -- °F
--% Chance of Precip.
Yesterday
High -- | Low -- °F
Precip. -- in
6:46 AM 4:43 PM
Waxing Crescent, 46% visible
Pressure 30.05 in
Visibility 5.0 miles
Clouds Mostly Cloudy 2200 ft
Overcast 2800 ft
Dew Point 55 °F
Humidity 96%
Rainfall 0.79 in
Snow Depth Not available.
UV 0 out of 12
Pollen .40 out of 12
Air Quality Not available.
Flu Activity Not available.
METAR KANB 280953Z AUTO 05005KT 5SM RA BR BKN022 OVC028 14/13 A3005 RMK AO2 SLP176 P0013 T01390128

More Conditions Fewer Conditions

Pressure 30.05 in
Visibility 5.0 miles
Clouds Mostly Cloudy 2200 ft
Overcast 2800 ft
Dew Point 55 °F
Humidity 96%
Rainfall 0.79 in
Snow Depth Not available.
UV 0 out of 12
Pollen .40 out of 12
Air Quality Not available.
Flu Activity Not available.
METAR KANB 280953Z AUTO 05005KT 5SM RA BR BKN022 OVC028 14/13 A3005 RMK AO2 SLP176 P0013 T01390128

More Conditions Fewer Conditions

10-Day Weather Forecast

Almanac

Astronomy

Dec. 28, 2014 Rise Set
Actual Time
Civil Twilight
Nautical Twilight
Astronomical Twilight
Moon
Length of Visible Light
Length of Day
Tomorrow will be .
, % of the Moon is Illuminated

Today's Extremes

State Highs State Lows

Community

WunderPhotos

Upload Photos

1,781,207 photos uploaded!

WunderBlogs® & News

Nearby

Air Quality

  Air Quality AQ Index Pollutant
Not available.

Snow Depth

Station Depth Elevation

Earthquake Activity

City Distance Mag. Time & Date
Minimum magnitude displayed is 2.5.

Coastal Water Temperatures

Place Temperature

Nearby Weather Stations